createdAt,value
2024-03-24T00:00:05.903Z,7.76
2024-03-24T00:05:34.651Z,7.72
2024-03-24T00:10:37.548Z,7.67
2024-03-24T00:15:40.514Z,7.72
2024-03-24T00:20:43.514Z,7.76
2024-03-24T00:25:46.499Z,7.78
2024-03-24T00:30:49.551Z,7.78
2024-03-24T00:35:52.427Z,7.79
2024-03-24T00:40:55.664Z,7.81
2024-03-24T00:45:58.819Z,7.78
2024-03-24T00:51:01.947Z,7.74
2024-03-24T00:56:05.397Z,7.69
2024-03-24T01:01:08.868Z,7.71
2024-03-24T01:06:11.932Z,7.75
2024-03-24T01:11:15.355Z,7.71
2024-03-24T01:16:18.174Z,7.72
2024-03-24T01:21:21.309Z,7.73
2024-03-24T01:26:25.008Z,7.68
2024-03-24T01:31:27.980Z,7.66
2024-03-24T01:36:31.538Z,7.67
2024-03-24T01:41:34.440Z,7.67
2024-03-24T01:46:37.753Z,7.62
2024-03-24T01:51:40.687Z,7.53
2024-03-24T01:56:44.375Z,7.52
2024-03-24T02:01:47.437Z,7.57
2024-03-24T02:06:50.740Z,7.58
2024-03-24T02:11:53.619Z,7.59
2024-03-24T02:16:56.540Z,7.57
2024-03-24T02:21:59.458Z,7.56
2024-03-24T02:27:02.364Z,7.56
2024-03-24T02:32:05.770Z,7.55
2024-03-24T02:37:08.880Z,7.55
2024-03-24T02:42:11.843Z,7.53
2024-03-24T02:47:14.741Z,7.55
2024-03-24T02:52:17.565Z,7.55
2024-03-24T02:57:20.496Z,7.55
2024-03-24T03:02:23.332Z,7.55
2024-03-24T03:07:26.326Z,7.54
2024-03-24T03:12:29.206Z,7.48
2024-03-24T03:17:33.282Z,7.48
2024-03-24T03:22:36.291Z,7.48
2024-03-24T03:27:39.615Z,7.33
2024-03-24T03:32:42.603Z,7.25
2024-03-24T03:37:45.499Z,7.22
2024-03-24T03:42:48.376Z,7.17
2024-03-24T03:47:51.795Z,7.09
2024-03-24T03:52:56.743Z,7.03
2024-03-24T03:57:59.611Z,6.98
2024-03-24T04:03:02.637Z,6.89
2024-03-24T04:08:06.430Z,6.84
2024-03-24T04:13:09.325Z,6.83
2024-03-24T04:18:12.205Z,6.89
2024-03-24T04:23:15.065Z,6.95
2024-03-24T04:28:17.976Z,6.91
2024-03-24T04:33:20.824Z,6.76
2024-03-24T04:38:23.721Z,6.70
2024-03-24T04:43:27.769Z,6.68
2024-03-24T04:48:30.634Z,6.71
2024-03-24T04:53:33.494Z,6.73
2024-03-24T04:58:36.435Z,6.70
2024-03-24T05:03:39.373Z,6.71
2024-03-24T05:08:42.476Z,6.76
2024-03-24T05:13:48.761Z,6.80
2024-03-24T05:18:52.476Z,6.84
2024-03-24T05:23:55.464Z,6.91
2024-03-24T05:28:58.764Z,7.00
2024-03-24T05:34:01.902Z,7.06
2024-03-24T05:39:05.225Z,7.16
2024-03-24T05:44:08.168Z,7.22
2024-03-24T05:49:11.670Z,7.28
2024-03-24T05:54:14.471Z,7.32
2024-03-24T05:59:17.971Z,7.37
2024-03-24T06:04:20.962Z,7.47
2024-03-24T06:09:24.023Z,7.60
2024-03-24T06:14:26.881Z,7.66
2024-03-24T06:19:29.786Z,7.76
2024-03-24T06:24:32.735Z,7.91
2024-03-24T06:29:36.522Z,8.11
2024-03-24T06:34:39.449Z,8.26
2024-03-24T06:39:42.407Z,8.26
2024-03-24T06:44:47.659Z,8.25
2024-03-24T06:49:50.804Z,8.39
2024-03-24T06:54:54.348Z,8.65
2024-03-24T06:59:57.331Z,8.73
2024-03-24T07:05:00.406Z,8.83
2024-03-24T07:10:05.278Z,8.94
2024-03-24T07:15:09.113Z,8.95
2024-03-24T07:20:12.663Z,8.81
2024-03-24T07:25:15.926Z,8.82
2024-03-24T07:30:18.971Z,8.87
2024-03-24T07:35:22.248Z,8.84
2024-03-24T07:40:25.908Z,8.70
2024-03-24T07:45:31.726Z,8.25
2024-03-24T07:50:34.743Z,7.89
2024-03-24T07:55:37.644Z,7.66
2024-03-24T08:00:40.584Z,7.52
2024-03-24T08:05:43.447Z,7.48
2024-03-24T08:10:46.433Z,7.43
2024-03-24T08:15:49.457Z,7.47
2024-03-24T08:20:54.536Z,7.61
2024-03-24T08:25:59.426Z,7.57
2024-03-24T08:31:02.528Z,7.45
2024-03-24T08:36:06.245Z,7.45
2024-03-24T08:41:13.817Z,7.42
2024-03-24T08:46:16.856Z,7.43
2024-03-24T08:51:19.931Z,7.54
2024-03-24T08:56:22.929Z,7.66
2024-03-24T09:01:25.779Z,7.78
2024-03-24T09:06:28.781Z,7.83
2024-03-24T09:11:31.815Z,7.94
2024-03-24T09:16:37.708Z,7.97
2024-03-24T09:21:40.936Z,7.75
2024-03-24T09:26:44.295Z,7.68
2024-03-24T09:31:47.184Z,7.80
2024-03-24T09:36:50.431Z,7.58
2024-03-24T09:41:54.869Z,7.54
2024-03-24T09:47:00.720Z,7.39
2024-03-24T09:52:05.840Z,7.19
2024-03-24T09:57:08.716Z,7.09
2024-03-24T10:02:13.990Z,6.99
2024-03-24T10:07:17.261Z,6.96
2024-03-24T10:12:20.540Z,7.09
2024-03-24T10:17:23.864Z,7.12
2024-03-24T10:22:26.913Z,7.12
2024-03-24T10:27:30.963Z,7.01
2024-03-24T10:32:33.954Z,6.81
2024-03-24T10:37:37.515Z,6.91
2024-03-24T10:42:55.613Z,7.02
2024-03-24T10:48:04.763Z,7.37
2024-03-24T10:53:15.221Z,7.58
2024-03-24T10:58:21.430Z,7.96
2024-03-24T11:03:24.984Z,8.47
2024-03-24T11:08:27.963Z,8.96
2024-03-24T11:13:35.557Z,9.39
2024-03-24T11:18:38.600Z,9.76
2024-03-24T11:23:41.930Z,10.00
2024-03-24T11:28:52.215Z,10.23
2024-03-24T11:34:01.392Z,10.41
2024-03-24T11:39:07.370Z,10.58
2024-03-24T11:44:10.381Z,10.91
2024-03-24T11:49:13.284Z,10.88
2024-03-24T11:54:16.953Z,10.62
2024-03-24T11:59:21.731Z,9.87
2024-03-24T12:04:26.229Z,9.14
2024-03-24T12:09:31.926Z,8.51
2024-03-24T12:14:35.271Z,8.02
2024-03-24T12:19:38.347Z,7.69
2024-03-24T12:24:41.500Z,7.43
2024-03-24T12:29:52.571Z,7.31
2024-03-24T12:35:01.720Z,7.10
2024-03-24T12:40:05.340Z,7.00
2024-03-24T12:45:10.173Z,7.03
2024-03-24T12:50:39.157Z,7.12
2024-03-24T12:55:49.316Z,7.32
2024-03-24T13:00:53.303Z,7.59
2024-03-24T13:06:01.490Z,8.29
2024-03-24T13:11:12.128Z,9.23
2024-03-24T13:16:30.390Z,10.02
2024-03-24T13:21:38.113Z,10.80
2024-03-24T13:26:45.640Z,11.52
2024-03-24T13:31:48.875Z,12.14
2024-03-24T13:37:13.240Z,12.80
2024-03-24T13:42:32.887Z,13.43
2024-03-24T13:47:38.942Z,13.83
2024-03-24T13:52:43.708Z,14.20
2024-03-24T13:57:46.795Z,14.33
2024-03-24T14:02:50.214Z,14.23
2024-03-24T14:07:53.516Z,13.86
2024-03-24T14:13:44.548Z,13.32
2024-03-24T14:18:50.191Z,12.72
2024-03-24T14:23:57.992Z,12.35
2024-03-24T14:29:00.848Z,11.98
2024-03-24T14:34:03.884Z,11.62
2024-03-24T14:39:19.414Z,11.45
2024-03-24T14:44:44.029Z,11.44
2024-03-24T14:49:46.933Z,11.09
2024-03-24T14:54:49.803Z,10.91
2024-03-24T14:59:54.847Z,10.75
2024-03-24T15:04:58.183Z,10.72
2024-03-24T15:10:01.076Z,10.69
2024-03-24T15:15:04.861Z,10.74
2024-03-24T15:20:11.654Z,10.78
2024-03-24T15:25:14.735Z,10.75
2024-03-24T15:30:17.697Z,10.70
2024-03-24T15:35:20.691Z,10.57
2024-03-24T15:40:23.617Z,10.50
2024-03-24T15:45:26.662Z,10.48
2024-03-24T15:50:29.744Z,10.62
2024-03-24T15:55:42.488Z,10.69
2024-03-24T16:00:51.322Z,10.68
2024-03-24T16:05:54.248Z,10.70
2024-03-24T16:11:17.003Z,10.72
2024-03-24T16:16:20.155Z,10.73
2024-03-24T16:21:52.388Z,10.70
2024-03-24T16:26:55.319Z,10.65
2024-03-24T16:31:58.829Z,10.56
2024-03-24T16:37:01.744Z,10.55
2024-03-24T16:42:04.806Z,10.58
2024-03-24T16:47:07.720Z,10.60
2024-03-24T16:52:10.875Z,10.59
2024-03-24T16:57:14.055Z,10.51
2024-03-24T17:02:21.176Z,10.47
2024-03-24T17:07:24.133Z,10.39
2024-03-24T17:12:27.138Z,10.36
2024-03-24T17:17:30.103Z,10.46
2024-03-24T17:22:33.223Z,10.38
2024-03-24T17:27:36.256Z,10.26
2024-03-24T17:32:39.243Z,10.16
2024-03-24T17:37:42.576Z,10.08
2024-03-24T17:42:45.567Z,10.07
2024-03-24T17:47:48.771Z,10.06
2024-03-24T17:52:51.670Z,10.37
2024-03-24T17:57:57.070Z,10.28
2024-03-24T18:03:00.401Z,10.14
2024-03-24T18:08:22.392Z,10.05
2024-03-24T18:13:25.439Z,10.07
2024-03-24T18:18:28.376Z,10.01
2024-03-24T18:23:33.691Z,9.97
2024-03-24T18:28:40.199Z,9.86
2024-03-24T18:33:43.399Z,9.79
2024-03-24T18:38:48.145Z,9.75
2024-03-24T18:43:51.189Z,9.75
2024-03-24T18:48:54.133Z,9.70
2024-03-24T18:53:57.049Z,9.55
2024-03-24T18:58:59.970Z,9.42
2024-03-24T19:04:03.969Z,9.38
2024-03-24T19:09:09.382Z,9.34
2024-03-24T19:14:12.374Z,9.24
2024-03-24T19:19:15.583Z,9.14
2024-03-24T19:24:18.710Z,9.07
2024-03-24T19:29:21.666Z,9.02
2024-03-24T19:34:24.732Z,9.05
2024-03-24T19:39:27.646Z,9.04
2024-03-24T19:44:32.379Z,9.10
2024-03-24T19:49:37.112Z,9.15
2024-03-24T19:54:41.069Z,9.18
2024-03-24T19:59:46.337Z,9.22
2024-03-24T20:04:49.239Z,9.25
2024-03-24T20:09:55.746Z,9.30
2024-03-24T20:15:02.821Z,9.24
2024-03-24T20:20:07.922Z,9.29
2024-03-24T20:25:11.014Z,9.27
2024-03-24T20:30:14.490Z,9.20
2024-03-24T20:35:17.930Z,9.16
2024-03-24T20:40:20.966Z,9.10
2024-03-24T20:45:24.655Z,8.97
2024-03-24T20:50:30.446Z,8.88
2024-03-24T20:55:34.046Z,8.88
2024-03-24T21:00:37.135Z,9.04
2024-03-24T21:05:40.088Z,8.93
2024-03-24T21:10:45.067Z,8.96
2024-03-24T21:15:48.591Z,8.77
2024-03-24T21:20:52.411Z,8.57
2024-03-24T21:25:55.503Z,8.46
2024-03-24T21:30:58.538Z,8.42
2024-03-24T21:36:01.992Z,8.41
2024-03-24T21:41:23.636Z,8.33
2024-03-24T21:46:26.744Z,8.22
2024-03-24T21:51:29.663Z,8.12
2024-03-24T21:56:32.637Z,8.04
2024-03-24T22:01:35.516Z,7.99
2024-03-24T22:06:51.125Z,7.93
2024-03-24T22:11:59.056Z,7.89
2024-03-24T22:17:02.255Z,7.79
2024-03-24T22:22:06.300Z,7.69
2024-03-24T22:27:10.135Z,7.54
2024-03-24T22:32:13.010Z,7.47
2024-03-24T22:37:15.980Z,7.47
2024-03-24T22:42:19.346Z,7.52
2024-03-24T22:47:22.232Z,7.57
2024-03-24T22:52:25.451Z,7.59
2024-03-24T22:57:28.650Z,7.53
2024-03-24T23:02:33.155Z,7.42
2024-03-24T23:07:37.182Z,7.33
2024-03-24T23:12:40.156Z,7.18
2024-03-24T23:17:43.180Z,7.13
2024-03-24T23:22:46.024Z,7.06
2024-03-24T23:27:49.188Z,6.95
2024-03-24T23:32:52.059Z,6.84
2024-03-24T23:37:55.002Z,6.74
2024-03-24T23:42:58.064Z,6.64
2024-03-24T23:48:02.855Z,6.51
2024-03-24T23:53:05.764Z,6.37
2024-03-24T23:58:08.934Z,6.19
